sensor_id;sensor_type;location;lat;lon;timestamp;P1;durP1;ratioP1;P2;durP2;ratioP2
53207;SDS011;39093;52.788;6.940;2022-12-15T00:02:23;30.98;;;17.67;;
53207;SDS011;39093;52.788;6.940;2022-12-15T00:05:09;30.10;;;17.48;;
53207;SDS011;39093;52.788;6.940;2022-12-15T00:07:54;29.23;;;16.45;;
53207;SDS011;39093;52.788;6.940;2022-12-15T00:10:40;31.98;;;16.88;;
53207;SDS011;39093;52.788;6.940;2022-12-15T00:13:25;28.83;;;17.60;;
53207;SDS011;39093;52.788;6.940;2022-12-15T00:16:10;30.58;;;17.35;;
53207;SDS011;39093;52.788;6.940;2022-12-15T00:18:55;35.58;;;16.15;;
53207;SDS011;39093;52.788;6.940;2022-12-15T00:21:41;27.38;;;15.75;;
53207;SDS011;39093;52.788;6.940;2022-12-15T00:24:26;32.72;;;15.93;;
53207;SDS011;39093;52.788;6.940;2022-12-15T00:27:15;30.63;;;16.77;;
53207;SDS011;39093;52.788;6.940;2022-12-15T00:30:00;29.40;;;15.85;;
53207;SDS011;39093;52.788;6.940;2022-12-15T00:32:46;29.20;;;16.48;;
53207;SDS011;39093;52.788;6.940;2022-12-15T00:35:31;27.52;;;14.95;;
53207;SDS011;39093;52.788;6.940;2022-12-15T00:38:16;29.55;;;16.38;;
53207;SDS011;39093;52.788;6.940;2022-12-15T00:41:02;33.05;;;17.05;;
53207;SDS011;39093;52.788;6.940;2022-12-15T00:43:30;34.25;;;15.55;;
53207;SDS011;39093;52.788;6.940;2022-12-15T00:45:59;30.25;;;16.80;;
53207;SDS011;39093;52.788;6.940;2022-12-15T00:48:44;29.77;;;14.95;;
53207;SDS011;39093;52.788;6.940;2022-12-15T00:51:12;30.30;;;16.08;;
53207;SDS011;39093;52.788;6.940;2022-12-15T00:53:41;26.90;;;15.35;;
53207;SDS011;39093;52.788;6.940;2022-12-15T00:56:27;28.17;;;15.25;;
53207;SDS011;39093;52.788;6.940;2022-12-15T00:59:12;30.38;;;16.42;;
53207;SDS011;39093;52.788;6.940;2022-12-15T01:01:58;30.05;;;14.73;;
53207;SDS011;39093;52.788;6.940;2022-12-15T01:04:43;28.02;;;14.90;;
53207;SDS011;39093;52.788;6.940;2022-12-15T01:07:29;29.55;;;15.98;;
53207;SDS011;39093;52.788;6.940;2022-12-15T01:10:15;27.25;;;15.52;;
53207;SDS011;39093;52.788;6.940;2022-12-15T01:13:02;26.67;;;14.57;;
53207;SDS011;39093;52.788;6.940;2022-12-15T01:15:48;29.38;;;16.05;;
53207;SDS011;39093;52.788;6.940;2022-12-15T01:18:34;29.73;;;16.02;;
53207;SDS011;39093;52.788;6.940;2022-12-15T01:21:19;29.33;;;15.95;;
53207;SDS011;39093;52.788;6.940;2022-12-15T01:23:50;27.40;;;14.88;;
53207;SDS011;39093;52.788;6.940;2022-12-15T01:26:16;26.55;;;15.65;;
53207;SDS011;39093;52.788;6.940;2022-12-15T01:28:43;30.63;;;14.77;;
53207;SDS011;39093;52.788;6.940;2022-12-15T01:31:10;28.20;;;16.05;;
53207;SDS011;39093;52.788;6.940;2022-12-15T01:33:38;28.45;;;15.05;;
53207;SDS011;39093;52.788;6.940;2022-12-15T01:36:05;29.15;;;16.25;;
53207;SDS011;39093;52.788;6.940;2022-12-15T01:38:32;30.33;;;16.73;;
53207;SDS011;39093;52.788;6.940;2022-12-15T01:41:04;34.65;;;18.08;;
53207;SDS011;39093;52.788;6.940;2022-12-15T01:43:34;30.27;;;14.85;;
53207;SDS011;39093;52.788;6.940;2022-12-15T01:48:41;33.70;;;16.92;;
53207;SDS011;39093;52.788;6.940;2022-12-15T01:51:15;32.33;;;16.13;;
53207;SDS011;39093;52.788;6.940;2022-12-15T01:54:03;29.10;;;16.10;;
53207;SDS011;39093;52.788;6.940;2022-12-15T01:57:08;26.83;;;14.73;;
53207;SDS011;39093;52.788;6.940;2022-12-15T01:59:50;26.58;;;14.95;;
53207;SDS011;39093;52.788;6.940;2022-12-15T02:02:20;28.05;;;15.43;;
53207;SDS011;39093;52.788;6.940;2022-12-15T02:04:50;29.65;;;16.17;;
53207;SDS011;39093;52.788;6.940;2022-12-15T02:07:18;30.08;;;15.93;;
53207;SDS011;39093;52.788;6.940;2022-12-15T02:09:46;28.75;;;15.98;;
53207;SDS011;39093;52.788;6.940;2022-12-15T02:12:35;26.60;;;16.02;;
53207;SDS011;39093;52.788;6.940;2022-12-15T02:18:27;25.48;;;14.73;;
53207;SDS011;39093;52.788;6.940;2022-12-15T02:21:09;29.40;;;16.05;;
53207;SDS011;39093;52.788;6.940;2022-12-15T02:32:49;30.27;;;15.32;;
53207;SDS011;39093;52.788;6.940;2022-12-15T02:35:07;31.98;;;16.52;;
53207;SDS011;39093;52.788;6.940;2022-12-15T02:37:40;30.15;;;16.65;;
53207;SDS011;39093;52.788;6.940;2022-12-15T02:40:09;26.48;;;14.90;;
53207;SDS011;39093;52.788;6.940;2022-12-15T02:42:38;26.48;;;15.35;;
53207;SDS011;39093;52.788;6.940;2022-12-15T02:45:14;30.88;;;17.05;;
53207;SDS011;39093;52.788;6.940;2022-12-15T02:47:51;26.30;;;15.18;;
53207;SDS011;39093;52.788;6.940;2022-12-15T02:53:52;30.55;;;15.63;;
53207;SDS011;39093;52.788;6.940;2022-12-15T02:59:13;32.25;;;15.82;;
53207;SDS011;39093;52.788;6.940;2022-12-15T03:02:10;28.02;;;15.85;;
53207;SDS011;39093;52.788;6.940;2022-12-15T03:04:38;32.38;;;15.77;;
53207;SDS011;39093;52.788;6.940;2022-12-15T03:07:08;29.15;;;16.45;;
53207;SDS011;39093;52.788;6.940;2022-12-15T03:09:35;30.25;;;15.93;;
53207;SDS011;39093;52.788;6.940;2022-12-15T03:12:02;29.73;;;15.88;;
53207;SDS011;39093;52.788;6.940;2022-12-15T03:14:29;30.30;;;15.82;;
53207;SDS011;39093;52.788;6.940;2022-12-15T03:16:56;29.67;;;16.50;;
53207;SDS011;39093;52.788;6.940;2022-12-15T03:19:23;28.80;;;16.35;;
53207;SDS011;39093;52.788;6.940;2022-12-15T03:21:51;31.25;;;17.67;;
53207;SDS011;39093;52.788;6.940;2022-12-15T03:24:18;29.20;;;16.77;;
53207;SDS011;39093;52.788;6.940;2022-12-15T03:26:45;27.15;;;15.93;;
53207;SDS011;39093;52.788;6.940;2022-12-15T03:29:15;26.65;;;15.88;;
53207;SDS011;39093;52.788;6.940;2022-12-15T03:31:43;31.00;;;16.23;;
53207;SDS011;39093;52.788;6.940;2022-12-15T03:34:10;26.10;;;16.05;;
53207;SDS011;39093;52.788;6.940;2022-12-15T03:36:37;24.90;;;14.95;;
53207;SDS011;39093;52.788;6.940;2022-12-15T03:39:04;26.27;;;15.88;;
53207;SDS011;39093;52.788;6.940;2022-12-15T03:41:32;25.58;;;15.57;;
53207;SDS011;39093;52.788;6.940;2022-12-15T03:43:59;29.20;;;15.48;;
53207;SDS011;39093;52.788;6.940;2022-12-15T03:46:26;27.92;;;15.05;;
53207;SDS011;39093;52.788;6.940;2022-12-15T03:48:53;27.38;;;16.05;;
53207;SDS011;39093;52.788;6.940;2022-12-15T03:51:20;29.52;;;16.40;;
53207;SDS011;39093;52.788;6.940;2022-12-15T03:53:47;32.55;;;17.20;;
53207;SDS011;39093;52.788;6.940;2022-12-15T03:56:15;26.08;;;16.15;;
53207;SDS011;39093;52.788;6.940;2022-12-15T03:58:42;25.52;;;14.02;;
53207;SDS011;39093;52.788;6.940;2022-12-15T04:01:18;26.92;;;14.20;;
53207;SDS011;39093;52.788;6.940;2022-12-15T04:03:52;33.30;;;16.30;;
53207;SDS011;39093;52.788;6.940;2022-12-15T04:06:26;26.38;;;14.98;;
53207;SDS011;39093;52.788;6.940;2022-12-15T04:08:53;27.67;;;15.88;;
53207;SDS011;39093;52.788;6.940;2022-12-15T04:11:20;28.27;;;15.05;;
53207;SDS011;39093;52.788;6.940;2022-12-15T04:13:47;26.00;;;14.75;;
53207;SDS011;39093;52.788;6.940;2022-12-15T04:16:13;25.20;;;15.07;;
53207;SDS011;39093;52.788;6.940;2022-12-15T04:18:45;25.00;;;14.52;;
53207;SDS011;39093;52.788;6.940;2022-12-15T04:21:32;29.00;;;15.05;;
53207;SDS011;39093;52.788;6.940;2022-12-15T04:23:59;28.48;;;15.30;;
53207;SDS011;39093;52.788;6.940;2022-12-15T04:26:45;27.98;;;15.18;;
53207;SDS011;39093;52.788;6.940;2022-12-15T04:29:30;24.73;;;14.02;;
53207;SDS011;39093;52.788;6.940;2022-12-15T04:32:15;23.00;;;13.05;;
53207;SDS011;39093;52.788;6.940;2022-12-15T04:35:01;28.38;;;14.85;;
53207;SDS011;39093;52.788;6.940;2022-12-15T04:37:46;23.55;;;14.68;;
53207;SDS011;39093;52.788;6.940;2022-12-15T04:40:31;24.73;;;14.60;;
53207;SDS011;39093;52.788;6.940;2022-12-15T04:43:17;28.42;;;15.48;;
53207;SDS011;39093;52.788;6.940;2022-12-15T04:46:02;28.50;;;14.32;;
53207;SDS011;39093;52.788;6.940;2022-12-15T04:48:48;30.13;;;13.93;;
53207;SDS011;39093;52.788;6.940;2022-12-15T04:51:34;25.00;;;13.70;;
53207;SDS011;39093;52.788;6.940;2022-12-15T04:54:19;27.98;;;14.68;;
53207;SDS011;39093;52.788;6.940;2022-12-15T04:57:05;32.22;;;14.27;;
53207;SDS011;39093;52.788;6.940;2022-12-15T04:59:50;25.92;;;12.90;;
53207;SDS011;39093;52.788;6.940;2022-12-15T05:02:36;32.80;;;14.23;;
53207;SDS011;39093;52.788;6.940;2022-12-15T05:05:21;21.15;;;12.55;;
53207;SDS011;39093;52.788;6.940;2022-12-15T05:08:07;26.55;;;14.32;;
53207;SDS011;39093;52.788;6.940;2022-12-15T05:10:52;23.75;;;13.48;;
53207;SDS011;39093;52.788;6.940;2022-12-15T05:13:38;24.50;;;13.48;;
53207;SDS011;39093;52.788;6.940;2022-12-15T05:16:23;32.42;;;14.73;;
53207;SDS011;39093;52.788;6.940;2022-12-15T05:19:09;25.20;;;15.15;;
53207;SDS011;39093;52.788;6.940;2022-12-15T05:21:54;24.73;;;15.02;;
53207;SDS011;39093;52.788;6.940;2022-12-15T05:24:40;28.00;;;14.93;;
53207;SDS011;39093;52.788;6.940;2022-12-15T05:27:25;24.58;;;13.88;;
53207;SDS011;39093;52.788;6.940;2022-12-15T05:30:10;26.30;;;14.85;;
53207;SDS011;39093;52.788;6.940;2022-12-15T05:32:56;27.80;;;14.45;;
53207;SDS011;39093;52.788;6.940;2022-12-15T05:35:23;31.63;;;15.88;;
53207;SDS011;39093;52.788;6.940;2022-12-15T05:37:50;36.85;;;15.65;;
53207;SDS011;39093;52.788;6.940;2022-12-15T05:40:16;22.92;;;13.80;;
53207;SDS011;39093;52.788;6.940;2022-12-15T05:42:43;25.95;;;14.07;;
53207;SDS011;39093;52.788;6.940;2022-12-15T05:45:15;31.23;;;15.93;;
53207;SDS011;39093;52.788;6.940;2022-12-15T05:47:42;25.70;;;14.52;;
53207;SDS011;39093;52.788;6.940;2022-12-15T05:50:09;23.65;;;12.98;;
53207;SDS011;39093;52.788;6.940;2022-12-15T05:52:36;27.95;;;14.23;;
53207;SDS011;39093;52.788;6.940;2022-12-15T05:55:03;25.75;;;14.55;;
53207;SDS011;39093;52.788;6.940;2022-12-15T05:57:31;25.38;;;13.50;;
53207;SDS011;39093;52.788;6.940;2022-12-15T05:59:57;30.08;;;15.18;;
53207;SDS011;39093;52.788;6.940;2022-12-15T06:02:24;25.63;;;14.00;;
53207;SDS011;39093;52.788;6.940;2022-12-15T06:04:53;28.13;;;14.77;;
53207;SDS011;39093;52.788;6.940;2022-12-15T06:07:20;25.40;;;14.43;;
53207;SDS011;39093;52.788;6.940;2022-12-15T06:09:48;23.85;;;13.85;;
53207;SDS011;39093;52.788;6.940;2022-12-15T06:12:15;26.23;;;15.70;;
53207;SDS011;39093;52.788;6.940;2022-12-15T06:14:41;26.60;;;14.77;;
53207;SDS011;39093;52.788;6.940;2022-12-15T06:17:08;25.58;;;14.30;;
53207;SDS011;39093;52.788;6.940;2022-12-15T06:19:35;24.58;;;14.85;;
53207;SDS011;39093;52.788;6.940;2022-12-15T06:22:02;29.55;;;15.57;;
53207;SDS011;39093;52.788;6.940;2022-12-15T06:24:29;27.80;;;15.30;;
53207;SDS011;39093;52.788;6.940;2022-12-15T06:26:55;23.20;;;13.88;;
53207;SDS011;39093;52.788;6.940;2022-12-15T06:29:22;28.92;;;15.25;;
53207;SDS011;39093;52.788;6.940;2022-12-15T06:31:49;25.23;;;15.10;;
53207;SDS011;39093;52.788;6.940;2022-12-15T06:34:16;25.25;;;14.60;;
53207;SDS011;39093;52.788;6.940;2022-12-15T06:36:44;27.38;;;15.13;;
53207;SDS011;39093;52.788;6.940;2022-12-15T06:39:11;24.67;;;14.95;;
53207;SDS011;39093;52.788;6.940;2022-12-15T06:41:40;23.38;;;14.77;;
53207;SDS011;39093;52.788;6.940;2022-12-15T06:44:10;27.42;;;15.50;;
53207;SDS011;39093;52.788;6.940;2022-12-15T06:46:39;26.83;;;14.98;;
53207;SDS011;39093;52.788;6.940;2022-12-15T06:49:06;25.52;;;14.55;;
53207;SDS011;39093;52.788;6.940;2022-12-15T06:51:33;26.70;;;14.40;;
53207;SDS011;39093;52.788;6.940;2022-12-15T06:54:00;27.90;;;14.38;;
53207;SDS011;39093;52.788;6.940;2022-12-15T06:59:00;27.70;;;15.07;;
53207;SDS011;39093;52.788;6.940;2022-12-15T07:01:30;29.83;;;14.35;;
53207;SDS011;39093;52.788;6.940;2022-12-15T07:03:58;27.98;;;13.85;;
53207;SDS011;39093;52.788;6.940;2022-12-15T07:06:31;22.13;;;13.70;;
53207;SDS011;39093;52.788;6.940;2022-12-15T07:09:02;19.67;;;11.80;;
53207;SDS011;39093;52.788;6.940;2022-12-15T07:11:32;26.85;;;13.38;;
53207;SDS011;39093;52.788;6.940;2022-12-15T07:13:59;25.23;;;12.98;;
53207;SDS011;39093;52.788;6.940;2022-12-15T07:16:26;29.05;;;14.05;;
53207;SDS011;39093;52.788;6.940;2022-12-15T07:18:53;27.35;;;14.18;;
53207;SDS011;39093;52.788;6.940;2022-12-15T07:21:20;27.55;;;15.30;;
53207;SDS011;39093;52.788;6.940;2022-12-15T07:23:47;23.02;;;13.90;;
53207;SDS011;39093;52.788;6.940;2022-12-15T07:26:23;25.67;;;14.77;;
53207;SDS011;39093;52.788;6.940;2022-12-15T07:28:50;26.75;;;14.68;;
53207;SDS011;39093;52.788;6.940;2022-12-15T07:31:19;24.33;;;12.70;;
53207;SDS011;39093;52.788;6.940;2022-12-15T07:33:46;22.02;;;14.75;;
53207;SDS011;39093;52.788;6.940;2022-12-15T07:36:14;26.38;;;14.10;;
53207;SDS011;39093;52.788;6.940;2022-12-15T07:38:41;30.63;;;14.48;;
53207;SDS011;39093;52.788;6.940;2022-12-15T07:41:15;28.10;;;15.05;;
53207;SDS011;39093;52.788;6.940;2022-12-15T07:43:42;31.48;;;14.68;;
53207;SDS011;39093;52.788;6.940;2022-12-15T07:46:10;25.33;;;15.07;;
53207;SDS011;39093;52.788;6.940;2022-12-15T07:48:37;26.85;;;14.15;;
53207;SDS011;39093;52.788;6.940;2022-12-15T07:51:05;30.60;;;15.15;;
53207;SDS011;39093;52.788;6.940;2022-12-15T07:53:42;25.35;;;14.50;;
53207;SDS011;39093;52.788;6.940;2022-12-15T07:56:09;26.23;;;14.75;;
53207;SDS011;39093;52.788;6.940;2022-12-15T07:58:36;24.00;;;14.55;;
53207;SDS011;39093;52.788;6.940;2022-12-15T08:01:04;30.95;;;15.15;;
53207;SDS011;39093;52.788;6.940;2022-12-15T08:03:34;29.13;;;15.07;;
53207;SDS011;39093;52.788;6.940;2022-12-15T08:06:12;24.17;;;14.98;;
53207;SDS011;39093;52.788;6.940;2022-12-15T08:08:40;26.70;;;14.82;;
53207;SDS011;39093;52.788;6.940;2022-12-15T08:11:09;30.55;;;15.98;;
53207;SDS011;39093;52.788;6.940;2022-12-15T08:13:39;29.23;;;17.05;;
53207;SDS011;39093;52.788;6.940;2022-12-15T08:16:27;27.98;;;16.02;;
53207;SDS011;39093;52.788;6.940;2022-12-15T08:18:54;29.25;;;15.75;;
53207;SDS011;39093;52.788;6.940;2022-12-15T08:21:24;30.17;;;15.65;;
53207;SDS011;39093;52.788;6.940;2022-12-15T08:23:51;28.33;;;15.30;;
53207;SDS011;39093;52.788;6.940;2022-12-15T08:26:18;30.45;;;16.40;;
53207;SDS011;39093;52.788;6.940;2022-12-15T08:28:52;28.65;;;17.02;;
53207;SDS011;39093;52.788;6.940;2022-12-15T08:31:20;28.50;;;16.10;;
53207;SDS011;39093;52.788;6.940;2022-12-15T08:33:48;26.45;;;16.92;;
53207;SDS011;39093;52.788;6.940;2022-12-15T08:36:16;35.35;;;17.17;;
53207;SDS011;39093;52.788;6.940;2022-12-15T08:38:44;32.55;;;16.65;;
53207;SDS011;39093;52.788;6.940;2022-12-15T08:41:13;31.50;;;18.33;;
53207;SDS011;39093;52.788;6.940;2022-12-15T08:43:48;26.25;;;16.42;;
53207;SDS011;39093;52.788;6.940;2022-12-15T08:46:17;26.15;;;16.00;;
53207;SDS011;39093;52.788;6.940;2022-12-15T08:48:46;26.77;;;14.98;;
53207;SDS011;39093;52.788;6.940;2022-12-15T08:51:14;27.33;;;14.95;;
53207;SDS011;39093;52.788;6.940;2022-12-15T08:53:41;31.10;;;14.48;;
53207;SDS011;39093;52.788;6.940;2022-12-15T08:56:09;39.75;;;16.13;;
53207;SDS011;39093;52.788;6.940;2022-12-15T08:58:39;32.67;;;16.67;;
53207;SDS011;39093;52.788;6.940;2022-12-15T09:01:07;28.42;;;16.55;;
53207;SDS011;39093;52.788;6.940;2022-12-15T09:03:49;29.45;;;16.42;;
53207;SDS011;39093;52.788;6.940;2022-12-15T09:06:21;29.13;;;17.70;;
53207;SDS011;39093;52.788;6.940;2022-12-15T09:08:54;26.83;;;16.73;;
53207;SDS011;39093;52.788;6.940;2022-12-15T09:11:22;25.25;;;15.07;;
53207;SDS011;39093;52.788;6.940;2022-12-15T09:13:50;26.50;;;16.42;;
53207;SDS011;39093;52.788;6.940;2022-12-15T09:16:17;28.77;;;16.63;;
53207;SDS011;39093;52.788;6.940;2022-12-15T09:18:46;32.03;;;16.30;;
53207;SDS011;39093;52.788;6.940;2022-12-15T09:21:14;30.50;;;16.08;;
53207;SDS011;39093;52.788;6.940;2022-12-15T09:23:41;31.80;;;15.52;;
53207;SDS011;39093;52.788;6.940;2022-12-15T09:26:12;25.10;;;15.98;;
53207;SDS011;39093;52.788;6.940;2022-12-15T09:28:40;29.98;;;16.45;;
53207;SDS011;39093;52.788;6.940;2022-12-15T09:31:16;32.15;;;15.65;;
53207;SDS011;39093;52.788;6.940;2022-12-15T09:33:49;26.13;;;16.08;;
53207;SDS011;39093;52.788;6.940;2022-12-15T09:36:17;32.67;;;17.33;;
53207;SDS011;39093;52.788;6.940;2022-12-15T09:38:44;26.85;;;16.98;;
53207;SDS011;39093;52.788;6.940;2022-12-15T09:47:01;33.10;;;17.27;;
53207;SDS011;39093;52.788;6.940;2022-12-15T09:54:41;30.52;;;17.05;;
53207;SDS011;39093;52.788;6.940;2022-12-15T09:57:18;21.02;;;14.70;;
53207;SDS011;39093;52.788;6.940;2022-12-15T10:05:41;31.08;;;15.43;;
53207;SDS011;39093;52.788;6.940;2022-12-15T10:14:25;24.10;;;15.27;;
53207;SDS011;39093;52.788;6.940;2022-12-15T10:19:38;26.65;;;14.73;;
53207;SDS011;39093;52.788;6.940;2022-12-15T10:22:23;24.40;;;14.55;;
53207;SDS011;39093;52.788;6.940;2022-12-15T10:24:58;27.75;;;15.68;;
53207;SDS011;39093;52.788;6.940;2022-12-15T10:30:20;21.98;;;14.05;;
53207;SDS011;39093;52.788;6.940;2022-12-15T10:35:27;22.90;;;15.57;;
53207;SDS011;39093;52.788;6.940;2022-12-15T10:37:57;24.83;;;14.98;;
53207;SDS011;39093;52.788;6.940;2022-12-15T10:46:05;28.17;;;16.70;;
53207;SDS011;39093;52.788;6.940;2022-12-15T10:48:45;25.33;;;13.85;;
53207;SDS011;39093;52.788;6.940;2022-12-15T10:51:41;27.67;;;15.82;;
53207;SDS011;39093;52.788;6.940;2022-12-15T10:54:11;31.30;;;14.55;;
53207;SDS011;39093;52.788;6.940;2022-12-15T10:56:55;24.50;;;13.90;;
53207;SDS011;39093;52.788;6.940;2022-12-15T10:59:24;26.85;;;13.85;;
53207;SDS011;39093;52.788;6.940;2022-12-15T11:07:40;25.83;;;14.25;;
53207;SDS011;39093;52.788;6.940;2022-12-15T11:10:14;22.98;;;13.88;;
53207;SDS011;39093;52.788;6.940;2022-12-15T11:20:47;21.95;;;13.65;;
53207;SDS011;39093;52.788;6.940;2022-12-15T11:23:26;22.40;;;11.70;;
53207;SDS011;39093;52.788;6.940;2022-12-15T11:26:19;18.90;;;12.57;;
53207;SDS011;39093;52.788;6.940;2022-12-15T11:28:55;20.27;;;12.38;;
53207;SDS011;39093;52.788;6.940;2022-12-15T11:31:36;20.73;;;12.10;;
53207;SDS011;39093;52.788;6.940;2022-12-15T11:34:41;16.75;;;10.93;;
53207;SDS011;39093;52.788;6.940;2022-12-15T11:43:04;23.85;;;13.05;;
53207;SDS011;39093;52.788;6.940;2022-12-15T11:45:45;19.63;;;11.52;;
53207;SDS011;39093;52.788;6.940;2022-12-15T11:48:16;25.98;;;13.60;;
53207;SDS011;39093;52.788;6.940;2022-12-15T11:51:05;26.83;;;13.55;;
53207;SDS011;39093;52.788;6.940;2022-12-15T11:56:31;25.00;;;12.88;;
53207;SDS011;39093;52.788;6.940;2022-12-15T11:59:16;22.48;;;12.52;;
53207;SDS011;39093;52.788;6.940;2022-12-15T12:02:42;19.67;;;13.40;;
53207;SDS011;39093;52.788;6.940;2022-12-15T12:11:25;22.45;;;13.05;;
53207;SDS011;39093;52.788;6.940;2022-12-15T12:19:28;22.58;;;14.60;;
53207;SDS011;39093;52.788;6.940;2022-12-15T12:22:10;23.42;;;14.60;;
53207;SDS011;39093;52.788;6.940;2022-12-15T12:24:44;23.75;;;14.88;;
53207;SDS011;39093;52.788;6.940;2022-12-15T12:27:38;27.42;;;16.73;;
53207;SDS011;39093;52.788;6.940;2022-12-15T12:30:16;21.52;;;13.90;;
53207;SDS011;39093;52.788;6.940;2022-12-15T12:32:57;21.25;;;14.93;;
53207;SDS011;39093;52.788;6.940;2022-12-15T12:35:40;25.85;;;15.82;;
53207;SDS011;39093;52.788;6.940;2022-12-15T12:38:49;24.77;;;14.65;;
53207;SDS011;39093;52.788;6.940;2022-12-15T12:44:28;25.92;;;16.08;;
53207;SDS011;39093;52.788;6.940;2022-12-15T12:47:02;42.30;;;15.93;;
53207;SDS011;39093;52.788;6.940;2022-12-15T12:49:38;25.70;;;15.55;;
53207;SDS011;39093;52.788;6.940;2022-12-15T12:52:15;25.60;;;16.42;;
53207;SDS011;39093;52.788;6.940;2022-12-15T12:57:28;23.13;;;14.40;;
53207;SDS011;39093;52.788;6.940;2022-12-15T13:03:08;26.02;;;15.50;;
53207;SDS011;39093;52.788;6.940;2022-12-15T13:05:46;21.38;;;14.18;;
53207;SDS011;39093;52.788;6.940;2022-12-15T13:08:26;27.73;;;14.60;;
53207;SDS011;39093;52.788;6.940;2022-12-15T13:10:54;29.75;;;16.08;;
53207;SDS011;39093;52.788;6.940;2022-12-15T13:15:57;26.67;;;16.77;;
53207;SDS011;39093;52.788;6.940;2022-12-15T13:19:08;32.38;;;17.60;;
53207;SDS011;39093;52.788;6.940;2022-12-15T13:24:36;31.38;;;17.38;;
53207;SDS011;39093;52.788;6.940;2022-12-15T13:29:58;33.65;;;17.60;;
53207;SDS011;39093;52.788;6.940;2022-12-15T13:32:36;27.08;;;16.80;;
53207;SDS011;39093;52.788;6.940;2022-12-15T13:50:46;28.85;;;17.65;;
53207;SDS011;39093;52.788;6.940;2022-12-15T13:53:52;37.00;;;19.60;;
53207;SDS011;39093;52.788;6.940;2022-12-15T13:56:50;30.58;;;15.80;;
53207;SDS011;39093;52.788;6.940;2022-12-15T14:01:54;34.58;;;15.27;;
53207;SDS011;39093;52.788;6.940;2022-12-15T14:04:22;35.45;;;16.80;;
53207;SDS011;39093;52.788;6.940;2022-12-15T14:07:00;28.02;;;17.20;;
53207;SDS011;39093;52.788;6.940;2022-12-15T14:12:02;28.65;;;15.70;;
53207;SDS011;39093;52.788;6.940;2022-12-15T14:14:32;26.23;;;16.55;;
53207;SDS011;39093;52.788;6.940;2022-12-15T14:17:05;28.67;;;17.63;;
53207;SDS011;39093;52.788;6.940;2022-12-15T14:19:38;28.08;;;16.40;;
53207;SDS011;39093;52.788;6.940;2022-12-15T14:22:26;24.95;;;16.40;;
53207;SDS011;39093;52.788;6.940;2022-12-15T14:25:00;26.25;;;15.43;;
53207;SDS011;39093;52.788;6.940;2022-12-15T14:27:38;29.40;;;17.40;;
53207;SDS011;39093;52.788;6.940;2022-12-15T14:30:18;29.80;;;18.35;;
53207;SDS011;39093;52.788;6.940;2022-12-15T14:33:00;25.55;;;17.60;;
53207;SDS011;39093;52.788;6.940;2022-12-15T14:35:39;35.55;;;19.25;;
53207;SDS011;39093;52.788;6.940;2022-12-15T14:39:01;30.05;;;18.10;;
53207;SDS011;39093;52.788;6.940;2022-12-15T14:41:10;26.88;;;17.55;;
53207;SDS011;39093;52.788;6.940;2022-12-15T14:44:19;35.22;;;18.60;;
53207;SDS011;39093;52.788;6.940;2022-12-15T14:47:25;29.33;;;18.30;;
53207;SDS011;39093;52.788;6.940;2022-12-15T14:49:55;33.85;;;19.90;;
53207;SDS011;39093;52.788;6.940;2022-12-15T14:52:33;34.05;;;17.98;;
53207;SDS011;39093;52.788;6.940;2022-12-15T14:57:55;35.88;;;19.13;;
53207;SDS011;39093;52.788;6.940;2022-12-15T15:05:46;32.70;;;19.10;;
53207;SDS011;39093;52.788;6.940;2022-12-15T15:08:25;33.10;;;18.75;;
53207;SDS011;39093;52.788;6.940;2022-12-15T15:10:56;31.40;;;19.60;;
53207;SDS011;39093;52.788;6.940;2022-12-15T15:13:36;31.20;;;19.23;;
53207;SDS011;39093;52.788;6.940;2022-12-15T15:16:06;30.42;;;19.25;;
53207;SDS011;39093;52.788;6.940;2022-12-15T15:18:47;36.15;;;20.55;;
53207;SDS011;39093;52.788;6.940;2022-12-15T15:21:16;38.67;;;20.83;;
53207;SDS011;39093;52.788;6.940;2022-12-15T15:24:02;34.15;;;22.45;;
53207;SDS011;39093;52.788;6.940;2022-12-15T15:26:45;35.60;;;21.40;;
53207;SDS011;39093;52.788;6.940;2022-12-15T15:32:05;35.10;;;20.73;;
53207;SDS011;39093;52.788;6.940;2022-12-15T15:34:40;36.47;;;22.17;;
53207;SDS011;39093;52.788;6.940;2022-12-15T15:37:14;41.15;;;24.70;;
53207;SDS011;39093;52.788;6.940;2022-12-15T15:39:43;31.77;;;20.90;;
53207;SDS011;39093;52.788;6.940;2022-12-15T15:42:13;36.95;;;22.60;;
53207;SDS011;39093;52.788;6.940;2022-12-15T15:44:39;34.50;;;22.55;;
53207;SDS011;39093;52.788;6.940;2022-12-15T15:47:13;36.40;;;21.95;;
53207;SDS011;39093;52.788;6.940;2022-12-15T15:49:50;36.28;;;22.83;;
53207;SDS011;39093;52.788;6.940;2022-12-15T15:52:18;34.55;;;21.88;;
53207;SDS011;39093;52.788;6.940;2022-12-15T15:54:45;33.78;;;22.95;;
53207;SDS011;39093;52.788;6.940;2022-12-15T15:57:13;36.85;;;23.33;;
53207;SDS011;39093;52.788;6.940;2022-12-15T15:59:41;35.83;;;23.40;;
53207;SDS011;39093;52.788;6.940;2022-12-15T16:02:09;39.63;;;24.23;;
53207;SDS011;39093;52.788;6.940;2022-12-15T16:04:39;39.83;;;24.67;;
53207;SDS011;39093;52.788;6.940;2022-12-15T16:07:14;38.72;;;24.10;;
53207;SDS011;39093;52.788;6.940;2022-12-15T16:09:48;34.67;;;23.63;;
53207;SDS011;39093;52.788;6.940;2022-12-15T16:12:21;35.85;;;23.50;;
53207;SDS011;39093;52.788;6.940;2022-12-15T16:14:50;38.45;;;22.60;;
53207;SDS011;39093;52.788;6.940;2022-12-15T16:17:17;35.38;;;22.95;;
53207;SDS011;39093;52.788;6.940;2022-12-15T16:19:44;40.50;;;24.83;;
53207;SDS011;39093;52.788;6.940;2022-12-15T16:22:12;36.72;;;23.25;;
53207;SDS011;39093;52.788;6.940;2022-12-15T16:24:43;38.22;;;24.33;;
53207;SDS011;39093;52.788;6.940;2022-12-15T16:27:10;42.97;;;24.33;;
53207;SDS011;39093;52.788;6.940;2022-12-15T16:29:38;37.22;;;23.42;;
53207;SDS011;39093;52.788;6.940;2022-12-15T16:32:09;42.08;;;25.27;;
53207;SDS011;39093;52.788;6.940;2022-12-15T16:34:39;35.78;;;24.15;;
53207;SDS011;39093;52.788;6.940;2022-12-15T16:37:23;38.60;;;25.42;;
53207;SDS011;39093;52.788;6.940;2022-12-15T16:39:52;42.60;;;26.15;;
53207;SDS011;39093;52.788;6.940;2022-12-15T16:42:21;38.83;;;24.67;;
53207;SDS011;39093;52.788;6.940;2022-12-15T16:44:49;39.17;;;25.42;;
53207;SDS011;39093;52.788;6.940;2022-12-15T16:47:16;44.53;;;26.33;;
53207;SDS011;39093;52.788;6.940;2022-12-15T16:49:44;42.53;;;26.25;;
53207;SDS011;39093;52.788;6.940;2022-12-15T16:52:16;46.53;;;25.02;;
53207;SDS011;39093;52.788;6.940;2022-12-15T16:54:45;42.50;;;24.38;;
53207;SDS011;39093;52.788;6.940;2022-12-15T16:57:14;42.88;;;26.05;;
53207;SDS011;39093;52.788;6.940;2022-12-15T16:59:44;39.08;;;25.58;;
53207;SDS011;39093;52.788;6.940;2022-12-15T17:02:29;36.22;;;23.33;;
53207;SDS011;39093;52.788;6.940;2022-12-15T17:04:58;39.90;;;25.42;;
53207;SDS011;39093;52.788;6.940;2022-12-15T17:07:25;41.58;;;24.20;;
53207;SDS011;39093;52.788;6.940;2022-12-15T17:09:53;38.72;;;23.17;;
53207;SDS011;39093;52.788;6.940;2022-12-15T17:12:20;42.65;;;25.48;;
53207;SDS011;39093;52.788;6.940;2022-12-15T17:14:47;41.28;;;24.65;;
53207;SDS011;39093;52.788;6.940;2022-12-15T17:17:14;38.22;;;25.05;;
53207;SDS011;39093;52.788;6.940;2022-12-15T17:19:43;43.03;;;24.75;;
53207;SDS011;39093;52.788;6.940;2022-12-15T17:22:30;43.17;;;24.42;;
53207;SDS011;39093;52.788;6.940;2022-12-15T17:24:58;33.97;;;23.70;;
53207;SDS011;39093;52.788;6.940;2022-12-15T17:27:27;34.63;;;23.08;;